sensor_id;sensor_type;location;lat;lon;timestamp;P1;durP1;ratioP1;P2;durP2;ratioP2
85375;SDS011;75780;43.986;22.860;2024-01-15T19:18:52;67.15;;;28.58;;
85375;SDS011;75780;43.986;22.860;2024-01-15T19:21:17;67.82;;;28.30;;
85375;SDS011;75780;43.986;22.860;2024-01-15T19:23:43;91.57;;;40.15;;
85375;SDS011;75780;43.986;22.860;2024-01-15T19:26:15;92.85;;;40.15;;
85375;SDS011;75780;43.986;22.860;2024-01-15T19:28:44;76.75;;;36.15;;
85375;SDS011;75780;43.986;22.860;2024-01-15T19:31:10;85.78;;;36.58;;
85375;SDS011;75780;43.986;22.860;2024-01-15T19:33:35;66.85;;;29.73;;
85375;SDS011;75780;43.986;22.860;2024-01-15T19:36:01;60.10;;;26.23;;
85375;SDS011;75780;43.986;22.860;2024-01-15T19:38:26;50.35;;;21.80;;
85375;SDS011;75780;43.986;22.860;2024-01-15T19:40:53;46.08;;;20.40;;
85375;SDS011;75780;43.986;22.860;2024-01-15T19:43:18;48.78;;;23.35;;
85375;SDS011;75780;43.986;22.860;2024-01-15T19:45:44;65.97;;;28.42;;
85375;SDS011;75780;43.986;22.860;2024-01-15T19:48:09;64.68;;;28.90;;
85375;SDS011;75780;43.986;22.860;2024-01-15T19:50:36;56.95;;;23.88;;
85375;SDS011;75780;43.986;22.860;2024-01-15T19:53:01;59.80;;;27.42;;
85375;SDS011;75780;43.986;22.860;2024-01-15T19:55:27;51.65;;;22.33;;
85375;SDS011;75780;43.986;22.860;2024-01-15T19:57:52;60.20;;;25.48;;
85375;SDS011;75780;43.986;22.860;2024-01-15T20:00:18;63.55;;;28.02;;
85375;SDS011;75780;43.986;22.860;2024-01-15T20:02:43;70.13;;;29.35;;
85375;SDS011;75780;43.986;22.860;2024-01-15T20:05:08;73.55;;;31.35;;
85375;SDS011;75780;43.986;22.860;2024-01-15T20:07:35;59.17;;;27.17;;
85375;SDS011;75780;43.986;22.860;2024-01-15T20:10:02;52.58;;;24.70;;
85375;SDS011;75780;43.986;22.860;2024-01-15T20:12:28;50.60;;;22.63;;
85375;SDS011;75780;43.986;22.860;2024-01-15T20:14:54;43.13;;;19.63;;
85375;SDS011;75780;43.986;22.860;2024-01-15T20:17:20;39.78;;;18.60;;
85375;SDS011;75780;43.986;22.860;2024-01-15T20:19:45;44.42;;;19.42;;
85375;SDS011;75780;43.986;22.860;2024-01-15T20:22:10;29.42;;;12.98;;
85375;SDS011;75780;43.986;22.860;2024-01-15T20:24:37;52.33;;;22.63;;
85375;SDS011;75780;43.986;22.860;2024-01-15T20:27:03;32.83;;;15.35;;
85375;SDS011;75780;43.986;22.860;2024-01-15T20:29:29;45.97;;;21.77;;
85375;SDS011;75780;43.986;22.860;2024-01-15T20:31:54;50.63;;;22.50;;
85375;SDS011;75780;43.986;22.860;2024-01-15T20:34:20;38.88;;;17.65;;
85375;SDS011;75780;43.986;22.860;2024-01-15T20:36:45;43.10;;;18.30;;
85375;SDS011;75780;43.986;22.860;2024-01-15T20:39:11;47.15;;;20.27;;
85375;SDS011;75780;43.986;22.860;2024-01-15T20:41:37;54.92;;;22.08;;
85375;SDS011;75780;43.986;22.860;2024-01-15T20:44:03;64.93;;;30.08;;
85375;SDS011;75780;43.986;22.860;2024-01-15T20:46:29;75.68;;;33.92;;
85375;SDS011;75780;43.986;22.860;2024-01-15T20:48:55;88.72;;;44.42;;
85375;SDS011;75780;43.986;22.860;2024-01-15T20:51:20;75.18;;;34.60;;
85375;SDS011;75780;43.986;22.860;2024-01-15T20:53:46;97.55;;;43.17;;
85375;SDS011;75780;43.986;22.860;2024-01-15T20:56:13;115.13;;;54.00;;
85375;SDS011;75780;43.986;22.860;2024-01-15T20:58:38;49.13;;;23.77;;
85375;SDS011;75780;43.986;22.860;2024-01-15T21:01:04;43.53;;;19.60;;
85375;SDS011;75780;43.986;22.860;2024-01-15T21:03:30;47.00;;;22.45;;
85375;SDS011;75780;43.986;22.860;2024-01-15T21:05:56;62.45;;;29.52;;
85375;SDS011;75780;43.986;22.860;2024-01-15T21:08:22;63.13;;;26.77;;
85375;SDS011;75780;43.986;22.860;2024-01-15T21:10:47;56.70;;;25.45;;
85375;SDS011;75780;43.986;22.860;2024-01-15T21:13:13;47.40;;;21.58;;
85375;SDS011;75780;43.986;22.860;2024-01-15T21:15:38;41.83;;;18.75;;
85375;SDS011;75780;43.986;22.860;2024-01-15T21:18:05;40.90;;;19.30;;
85375;SDS011;75780;43.986;22.860;2024-01-15T21:20:31;31.83;;;13.68;;
85375;SDS011;75780;43.986;22.860;2024-01-15T21:22:58;39.60;;;17.45;;
85375;SDS011;75780;43.986;22.860;2024-01-15T21:25:24;45.00;;;19.02;;
85375;SDS011;75780;43.986;22.860;2024-01-15T21:27:50;46.33;;;19.92;;
85375;SDS011;75780;43.986;22.860;2024-01-15T21:30:17;30.77;;;14.45;;
85375;SDS011;75780;43.986;22.860;2024-01-15T21:32:43;40.17;;;18.60;;
85375;SDS011;75780;43.986;22.860;2024-01-15T21:35:10;41.33;;;17.10;;
85375;SDS011;75780;43.986;22.860;2024-01-15T21:37:38;44.42;;;20.35;;
85375;SDS011;75780;43.986;22.860;2024-01-15T21:40:04;33.55;;;16.10;;
85375;SDS011;75780;43.986;22.860;2024-01-15T21:42:35;33.22;;;15.73;;
85375;SDS011;75780;43.986;22.860;2024-01-15T21:45:01;37.75;;;17.38;;
85375;SDS011;75780;43.986;22.860;2024-01-15T21:47:26;41.13;;;16.48;;
85375;SDS011;75780;43.986;22.860;2024-01-15T21:49:53;33.40;;;16.38;;
85375;SDS011;75780;43.986;22.860;2024-01-15T21:52:19;36.83;;;15.15;;
85375;SDS011;75780;43.986;22.860;2024-01-15T21:54:44;34.65;;;14.63;;
85375;SDS011;75780;43.986;22.860;2024-01-15T21:57:09;40.05;;;17.17;;
85375;SDS011;75780;43.986;22.860;2024-01-15T21:59:35;35.00;;;16.67;;
85375;SDS011;75780;43.986;22.860;2024-01-15T22:02:00;45.65;;;20.50;;
85375;SDS011;75780;43.986;22.860;2024-01-15T22:04:29;54.42;;;23.45;;
85375;SDS011;75780;43.986;22.860;2024-01-15T22:06:55;41.92;;;18.70;;
85375;SDS011;75780;43.986;22.860;2024-01-15T22:09:20;39.67;;;17.85;;
85375;SDS011;75780;43.986;22.860;2024-01-15T22:11:46;46.97;;;20.13;;
85375;SDS011;75780;43.986;22.860;2024-01-15T22:14:11;42.47;;;19.35;;
85375;SDS011;75780;43.986;22.860;2024-01-15T22:16:36;42.55;;;20.25;;
85375;SDS011;75780;43.986;22.860;2024-01-15T22:19:02;51.35;;;19.67;;
85375;SDS011;75780;43.986;22.860;2024-01-15T22:21:27;42.35;;;19.45;;
85375;SDS011;75780;43.986;22.860;2024-01-15T22:23:53;31.98;;;15.23;;
85375;SDS011;75780;43.986;22.860;2024-01-15T22:26:18;49.20;;;22.73;;
85375;SDS011;75780;43.986;22.860;2024-01-15T22:28:44;51.60;;;23.63;;
85375;SDS011;75780;43.986;22.860;2024-01-15T22:31:09;54.78;;;23.50;;
85375;SDS011;75780;43.986;22.860;2024-01-15T22:33:35;45.55;;;20.17;;
85375;SDS011;75780;43.986;22.860;2024-01-15T22:36:00;45.10;;;21.17;;
85375;SDS011;75780;43.986;22.860;2024-01-15T22:38:26;43.53;;;19.98;;
85375;SDS011;75780;43.986;22.860;2024-01-15T22:40:51;47.92;;;20.27;;
85375;SDS011;75780;43.986;22.860;2024-01-15T22:43:17;47.50;;;22.02;;
85375;SDS011;75780;43.986;22.860;2024-01-15T22:45:42;53.33;;;23.75;;
85375;SDS011;75780;43.986;22.860;2024-01-15T22:48:07;63.13;;;26.15;;
85375;SDS011;75780;43.986;22.860;2024-01-15T22:50:33;53.15;;;24.65;;
85375;SDS011;75780;43.986;22.860;2024-01-15T22:52:58;58.72;;;24.27;;
85375;SDS011;75780;43.986;22.860;2024-01-15T22:55:24;49.25;;;22.65;;
85375;SDS011;75780;43.986;22.860;2024-01-15T22:57:49;51.78;;;22.02;;
85375;SDS011;75780;43.986;22.860;2024-01-15T23:00:15;51.13;;;21.65;;
85375;SDS011;75780;43.986;22.860;2024-01-15T23:05:12;45.38;;;19.65;;
85375;SDS011;75780;43.986;22.860;2024-01-15T23:07:37;46.60;;;21.20;;
85375;SDS011;75780;43.986;22.860;2024-01-15T23:10:05;47.42;;;21.77;;
85375;SDS011;75780;43.986;22.860;2024-01-15T23:12:31;38.72;;;17.38;;
85375;SDS011;75780;43.986;22.860;2024-01-15T23:14:56;38.67;;;17.95;;
85375;SDS011;75780;43.986;22.860;2024-01-15T23:17:22;52.30;;;21.35;;
85375;SDS011;75780;43.986;22.860;2024-01-15T23:19:47;30.88;;;14.32;;
85375;SDS011;75780;43.986;22.860;2024-01-15T23:22:13;47.30;;;21.92;;
85375;SDS011;75780;43.986;22.860;2024-01-15T23:24:39;55.03;;;25.00;;
85375;SDS011;75780;43.986;22.860;2024-01-15T23:27:05;54.72;;;26.15;;
85375;SDS011;75780;43.986;22.860;2024-01-15T23:29:30;55.88;;;25.27;;
85375;SDS011;75780;43.986;22.860;2024-01-15T23:31:56;59.15;;;25.85;;
85375;SDS011;75780;43.986;22.860;2024-01-15T23:34:21;66.53;;;30.60;;
85375;SDS011;75780;43.986;22.860;2024-01-15T23:36:47;53.65;;;24.55;;
85375;SDS011;75780;43.986;22.860;2024-01-15T23:39:12;71.60;;;33.60;;
85375;SDS011;75780;43.986;22.860;2024-01-15T23:41:38;59.35;;;25.45;;
85375;SDS011;75780;43.986;22.860;2024-01-15T23:44:03;58.30;;;27.30;;
85375;SDS011;75780;43.986;22.860;2024-01-15T23:46:30;57.70;;;26.42;;
85375;SDS011;75780;43.986;22.860;2024-01-15T23:48:56;46.33;;;19.48;;
85375;SDS011;75780;43.986;22.860;2024-01-15T23:51:22;51.08;;;24.13;;
85375;SDS011;75780;43.986;22.860;2024-01-15T23:53:48;55.63;;;22.55;;
85375;SDS011;75780;43.986;22.860;2024-01-15T23:56:13;55.80;;;22.67;;
85375;SDS011;75780;43.986;22.860;2024-01-15T23:58:39;51.28;;;22.83;;
